Time;durP1;ratioP1;P1;durP2;ratioP2;P2;SDS_P1;SDS_P2;PMS_P1;PMS_P2;Temp;Humidity;BMP_temperature;BMP_pressure;BME280_temperature;BME280_humidity;BME280_pressure;Samples;Min_cycle;Max_cycle;Signal;HPM_P1;HPM_P2
2022/12/31 00:02:09;;;;;;;;;;;;;;;20.88;28.04;98851.16;5040371;28;991;-80
2022/12/31 00:04:35;;;;;;;;;;;;;;;20.80;28.29;98856.88;5058461;28;941;-80
2022/12/31 00:07:00;;;;;;;;;;;;;;;20.93;28.58;98857.16;5039602;28;1119;-80
2022/12/31 00:09:26;;;;;;;;;;;;;;;21.26;28.02;98866.91;5058270;28;922;-80
2022/12/31 00:11:51;;;;;;;;;;;;;;;21.40;27.80;98865.16;5058822;28;912;-80
2022/12/31 00:14:17;;;;;;;;;;;;;;;21.22;27.78;98866.16;5057731;28;1894;-79
2022/12/31 00:16:42;;;;;;;;;;;;;;;21.12;28.16;98869.09;5058776;28;857;-80
2022/12/31 00:19:10;;;;;;;;;;;;;;;20.92;28.63;98874.56;5057771;28;947;-80
2022/12/31 00:21:35;;;;;;;;;;;;;;;21.31;28.00;98880.63;5057782;28;921;-80
2022/12/31 00:24:01;;;;;;;;;;;;;;;21.56;27.59;98880.34;5058838;28;944;-79
2022/12/31 00:26:27;;;;;;;;;;;;;;;21.40;27.63;98880.13;5057340;28;1000;-80
2022/12/31 00:28:53;;;;;;;;;;;;;;;21.04;28.51;98882.53;5057066;28;915;-80
2022/12/31 00:31:25;;;;;;;;;;;;;;;20.91;28.57;98878.59;5058245;28;951;-80
2022/12/31 00:33:51;;;;;;;;;;;;;;;20.81;28.90;98883.94;5057718;28;1963;-80
2022/12/31 00:36:18;;;;;;;;;;;;;;;21.30;28.37;98896.03;5058125;28;966;-80
2022/12/31 00:38:44;;;;;;;;;;;;;;;21.40;28.08;98882.13;5057278;28;976;-80
2022/12/31 00:41:09;;;;;;;;;;;;;;;21.17;28.26;98892.06;5058608;28;979;-80
2022/12/31 00:43:35;;;;;;;;;;;;;;;20.97;28.56;98891.06;5057616;28;958;-80
2022/12/31 00:46:00;;;;;;;;;;;;;;;20.93;28.78;98881.81;5058652;28;1117;-79
2022/12/31 00:48:26;;;;;;;;;;;;;;;21.30;28.37;98890.34;5057252;28;1187;-80
2022/12/31 00:50:51;;;;;;;;;;;;;;;21.29;28.16;98897.19;5058319;28;947;-80
2022/12/31 00:53:17;;;;;;;;;;;;;;;21.30;28.11;98896.03;5057464;28;954;-80
2022/12/31 00:55:42;;;;;;;;;;;;;;;21.24;28.23;98896.84;5057647;28;1910;-80
2022/12/31 00:58:07;;;;;;;;;;;;;;;20.81;29.17;98886.78;5057646;28;923;-80
2022/12/31 01:00:33;;;;;;;;;;;;;;;20.86;29.10;98893.22;5057975;28;1065;-80
2022/12/31 01:03:00;;;;;;;;;;;;;;;21.27;28.25;98896.81;5057738;28;926;-80
2022/12/31 01:05:25;;;;;;;;;;;;;;;21.34;28.36;98893.13;5057952;28;879;-80
2022/12/31 01:07:51;;;;;;;;;;;;;;;21.17;28.36;98891.28;5057233;28;922;-79
2022/12/31 01:11:17;;;;;;;;;;;;;;;21.08;28.46;98894.59;5057709;28;942;-80
2022/12/31 01:13:02;;;;;;;;;;;;;;;20.78;29.04;98893.28;5057440;28;903;-79
2022/12/31 01:15:27;;;;;;;;;;;;;;;21.25;28.63;98902.09;5057639;28;1913;-80
2022/12/31 01:17:52;;;;;;;;;;;;;;;21.38;28.11;98901.59;5057619;28;945;-79
2022/12/31 01:20:18;;;;;;;;;;;;;;;21.39;28.14;98894.69;5057961;28;1041;-80
2022/12/31 01:22:43;;;;;;;;;;;;;;;21.11;28.62;98893.75;5057398;28;899;-80
2022/12/31 01:25:09;;;;;;;;;;;;;;;20.76;29.09;98890.06;5057226;28;965;-80
2022/12/31 01:27:34;;;;;;;;;;;;;;;20.95;28.91;98893.53;5058138;28;972;-80
2022/12/31 01:29:59;;;;;;;;;;;;;;;20.94;28.90;98894.75;5056306;28;925;-79
2022/12/31 01:32:25;;;;;;;;;;;;;;;21.31;28.48;98891.16;5057587;28;1246;-80
2022/12/31 01:34:50;;;;;;;;;;;;;;;21.52;28.16;98890.91;5056738;28;1902;-79
2022/12/31 01:37:16;;;;;;;;;;;;;;;21.16;28.69;98884.81;5058034;28;942;-80
2022/12/31 01:39:41;;;;;;;;;;;;;;;20.80;29.22;98888.00;5058522;28;1109;-79
2022/12/31 01:42:09;;;;;;;;;;;;;;;20.72;29.44;98894.94;5061429;28;941;-80
2022/12/31 01:44:34;;;;;;;;;;;;;;;21.12;28.79;98888.91;5061261;28;966;-79
2022/12/31 01:47:02;;;;;;;;;;;;;;;21.24;28.56;98892.03;5060278;28;1191;-80
2022/12/31 01:49:31;;;;;;;;;;;;;;;21.47;28.00;98896.22;5059653;28;966;-80
2022/12/31 01:52:07;;;;;;;;;;;;;;;21.02;28.67;98890.63;5061352;28;916;-79
2022/12/31 01:54:34;;;;;;;;;;;;;;;21.03;28.89;98903.53;5059908;28;1980;-80
2022/12/31 01:56:59;;;;;;;;;;;;;;;21.09;28.56;98896.22;5060315;28;1060;-80
2022/12/31 01:59:25;;;;;;;;;;;;;;;21.38;28.05;98893.09;5076258;28;987;-79
2022/12/31 02:01:53;;;;;;;;;;;;;;;21.33;28.31;98902.84;5061133;28;850;-79
2022/12/31 02:04:19;;;;;;;;;;;;;;;21.43;28.02;98892.63;5061252;28;899;-80
2022/12/31 02:06:57;;;;;;;;;;;;;;;20.96;28.62;98892.31;5059518;28;1193;-80
2022/12/31 02:09:23;;;;;;;;;;;;;;;20.80;28.95;98888.00;5060752;28;890;-80
2022/12/31 02:11:48;;;;;;;;;;;;;;;20.61;29.32;98894.22;5061092;28;935;-79
2022/12/31 02:14:15;;;;;;;;;;;;;;;21.03;28.76;98897.88;5060533;28;1980;-80
2022/12/31 02:17:02;;;;;;;;;;;;;;;21.44;28.03;98899.91;5059395;28;917;-79
2022/12/31 02:19:31;;;;;;;;;;;;;;;21.51;27.82;98894.16;5059319;28;945;-79
2022/12/31 02:22:21;;;;;;;;;;;;;;;21.02;28.56;98896.28;5058361;28;1053;-79
2022/12/31 02:25:04;;;;;;;;;;;;;;;20.95;28.81;98894.34;5037553;28;972;-80
2022/12/31 02:27:38;;;;;;;;;;;;;;;20.94;29.00;98897.59;5038242;28;985;-80
2022/12/31 02:30:07;;;;;;;;;;;;;;;21.20;28.44;98896.91;5038274;28;1017;-79
2022/12/31 02:32:38;;;;;;;;;;;;;;;21.32;28.03;98901.25;5038013;28;1268;-80
2022/12/31 02:35:08;;;;;;;;;;;;;;;21.33;28.24;98888.69;5037688;28;1997;-80
2022/12/31 02:37:34;;;;;;;;;;;;;;;21.17;28.23;98892.06;5018217;28;1354;-80
2022/12/31 02:40:00;;;;;;;;;;;;;;;20.92;28.77;98894.34;5017629;28;1179;-80
2022/12/31 02:42:25;;;;;;;;;;;;;;;20.71;29.31;98895.34;5018055;28;1190;-80
2022/12/31 02:44:50;;;;;;;;;;;;;;;21.08;28.66;98894.59;5017712;28;1021;-80
2022/12/31 02:47:42;;;;;;;;;;;;;;;21.22;28.50;98894.44;5018011;28;944;-80
2022/12/31 02:50:26;;;;;;;;;;;;;;;21.37;28.01;98900.78;4981651;28;1062;-80
2022/12/31 02:53:12;;;;;;;;;;;;;;;21.08;28.39;98895.41;4997869;28;963;-80
2022/12/31 02:55:49;;;;;;;;;;;;;;;20.97;28.91;98899.56;4981805;28;2017;-80
2022/12/31 03:04:31;;;;;;;;;;;;;;;21.26;28.28;98900.88;4940065;29;940;-79
2022/12/31 03:06:58;;;;;;;;;;;;;;;21.38;28.01;98910.09;4940012;29;1052;-80
2022/12/31 03:09:24;;;;;;;;;;;;;;;20.99;28.52;98914.13;4956255;29;985;-80
2022/12/31 03:14:33;;;;;;;;;;;;;;;20.78;28.69;98910.25;4939099;29;1984;-79
2022/12/31 03:16:59;;;;;;;;;;;;;;;21.08;28.54;98906.72;4939958;29;1105;-80
2022/12/31 03:22:28;;;;;;;;;;;;;;;21.49;28.01;98907.94;4940068;29;1019;-80
2022/12/31 03:27:46;;;;;;;;;;;;;;;21.05;28.52;98912.44;4955464;29;970;-80
2022/12/31 03:30:12;;;;;;;;;;;;;;;20.92;28.69;98917.00;4958988;28;1018;-80
2022/12/31 03:32:37;;;;;;;;;;;;;;;21.14;28.47;98921.22;5004639;28;1259;-79
2022/12/31 03:35:03;;;;;;;;;;;;;;;21.12;28.40;98912.34;5036811;28;1988;-80
2022/12/31 03:37:28;;;;;;;;;;;;;;;21.45;28.13;98924.16;5020501;28;1057;-79
2022/12/31 03:39:54;;;;;;;;;;;;;;;21.42;27.76;98908.03;5036652;28;1019;-79
2022/12/31 03:42:19;;;;;;;;;;;;;;;21.04;28.46;98911.63;5036833;28;1133;-79
2022/12/31 03:44:45;;;;;;;;;;;;;;;20.81;28.98;98919.91;5036072;28;1042;-80
2022/12/31 03:47:10;;;;;;;;;;;;;;;21.11;28.41;98922.06;5036905;28;1069;-80
2022/12/31 03:49:36;;;;;;;;;;;;;;;21.19;28.27;98920.78;5036724;28;843;-80
2022/12/31 03:52:02;;;;;;;;;;;;;;;21.26;28.26;98929.19;5051034;28;943;-80
2022/12/31 03:54:28;;;;;;;;;;;;;;;21.49;27.64;98927.75;5058514;28;1906;-80
2022/12/31 03:56:53;;;;;;;;;;;;;;;21.24;28.17;98916.66;5058665;28;1018;-80
2022/12/31 03:59:19;;;;;;;;;;;;;;;21.12;28.11;98923.66;5058308;28;983;-80
2022/12/31 04:01:44;;;;;;;;;;;;;;;21.00;28.45;98929.84;5059207;28;900;-80
2022/12/31 04:04:10;;;;;;;;;;;;;;;21.19;28.12;98923.59;5058322;28;945;-80
2022/12/31 04:06:36;;;;;;;;;;;;;;;21.34;28.06;98918.59;5040029;28;951;-79
2022/12/31 04:09:01;;;;;;;;;;;;;;;21.25;27.86;98936.06;5058158;28;784;-80
2022/12/31 04:11:26;;;;;;;;;;;;;;;21.05;28.37;98929.41;5058946;28;897;-80
2022/12/31 04:13:52;;;;;;;;;;;;;;;20.92;28.44;98939.63;5058456;28;853;-78
2022/12/31 04:16:17;;;;;;;;;;;;;;;21.27;28.18;98941.31;5057996;28;1918;-78
2022/12/31 04:18:43;;;;;;;;;;;;;;;21.27;27.84;98936.44;5057783;28;967;-79
2022/12/31 04:21:08;;;;;;;;;;;;;;;21.36;27.73;98938.03;5058492;28;885;-79
2022/12/31 04:23:33;;;;;;;;;;;;;;;21.09;28.02;98935.84;5057356;28;967;-79
2022/12/31 04:25:59;;;;;;;;;;;;;;;21.09;28.21;98941.50;5058698;28;865;-78
2022/12/31 04:28:24;;;;;;;;;;;;;;;21.11;27.91;98933.38;5057143;28;919;-78
2022/12/31 04:30:50;;;;;;;;;;;;;;;21.33;27.99;98946.13;5058722;28;908;-79
2022/12/31 04:33:15;;;;;;;;;;;;;;;21.40;27.64;98944.44;5057631;28;1048;-79
2022/12/31 04:35:41;;;;;;;;;;;;;;;21.35;27.81;98942.88;5057464;28;1909;-78
2022/12/31 04:38:06;;;;;;;;;;;;;;;21.13;28.06;98945.06;5056880;28;1265;-78
2022/12/31 04:40:31;;;;;;;;;;;;;;;21.11;27.82;98946.72;5057769;28;1257;-79
2022/12/31 04:42:57;;;;;;;;;;;;;;;21.04;28.26;98944.78;5057604;28;942;-79
2022/12/31 04:45:22;;;;;;;;;;;;;;;21.29;27.87;98950.16;5057741;28;1036;-79
2022/12/31 04:47:48;;;;;;;;;;;;;;;21.33;28.00;98946.13;5057506;28;971;-79
2022/12/31 04:50:13;;;;;;;;;;;;;;;21.36;27.96;98955.81;5057426;28;899;-79
2022/12/31 04:52:38;;;;;;;;;;;;;;;21.02;28.39;98952.88;5039087;28;921;-79
2022/12/31 04:55:04;;;;;;;;;;;;;;;20.94;28.40;98957.00;5057512;28;1887;-79
2022/12/31 04:57:30;;;;;;;;;;;;;;;20.76;28.59;98948.66;5056838;28;964;-79
2022/12/31 04:59:55;;;;;;;;;;;;;;;21.16;28.08;98961.22;5057542;28;1053;-79
2022/12/31 05:02:20;;;;;;;;;;;;;;;21.42;27.79;98953.31;5058086;28;989;-79
2022/12/31 05:04:46;;;;;;;;;;;;;;;21.50;27.49;98954.84;5057333;28;866;-78
2022/12/31 05:07:11;;;;;;;;;;;;;;;21.24;27.73;98959.94;5057852;28;1248;-79
2022/12/31 05:09:37;;;;;;;;;;;;;;;20.97;28.43;98961.81;5056894;28;1197;-78
2022/12/31 05:12:02;;;;;;;;;;;;;;;20.77;28.60;98961.56;5057851;28;1205;-79
2022/12/31 05:14:28;;;;;;;;;;;;;;;21.44;27.71;98963.00;5064185;28;1910;-79
2022/12/31 05:16:53;;;;;;;;;;;;;;;21.45;27.43;98969.44;5061659;28;1277;-78
2022/12/31 05:19:19;;;;;;;;;;;;;;;21.35;27.78;98959.03;5061178;28;1264;-78
2022/12/31 05:22:27;;;;;;;;;;;;;;;21.25;27.90;98978.53;5068784;28;1188;-78
2022/12/31 05:24:30;;;;;;;;;;;;;;;20.92;28.18;98976.41;5059641;28;1230;-80
2022/12/31 05:26:55;;;;;;;;;;;;;;;20.84;28.66;98972.03;5061347;28;1235;-79
2022/12/31 05:29:21;;;;;;;;;;;;;;;20.86;28.30;98975.25;5061024;28;1224;-79
2022/12/31 05:31:46;;;;;;;;;;;;;;;21.10;28.05;98988.38;5061875;28;1249;-80
2022/12/31 05:34:12;;;;;;;;;;;;;;;21.29;27.74;98984.94;5061097;28;1909;-79
2022/12/31 05:36:38;;;;;;;;;;;;;;;21.28;27.77;98983.34;5061352;28;846;-79
2022/12/31 05:39:03;;;;;;;;;;;;;;;21.07;28.27;98983.53;5060656;28;1122;-79
2022/12/31 05:41:29;;;;;;;;;;;;;;;20.85;28.65;98984.97;5060285;28;1564;-70
2022/12/31 05:43:54;;;;;;;;;;;;;;;21.32;27.73;98989.81;5050884;28;1687;-73
2022/12/31 05:46:20;;;;;;;;;;;;;;;21.61;27.44;98983.88;5049572;28;1517;-71
2022/12/31 05:48:45;;;;;;;;;;;;;;;21.62;27.21;98996.78;5056101;28;1469;-71
2022/12/31 05:51:11;;;;;;;;;;;;;;;21.91;26.95;98993.63;5049820;28;1592;-72
2022/12/31 05:53:37;;;;;;;;;;;;;;;21.70;26.82;98995.47;5052946;28;1688;-72
2022/12/31 05:56:03;;;;;;;;;;;;;;;21.60;27.16;98993.56;5050107;28;1910;-72
2022/12/31 05:58:28;;;;;;;;;;;;;;;21.65;27.24;98995.94;5055336;28;2033;-72
2022/12/31 06:00:54;;;;;;;;;;;;;;;21.63;27.27;98997.59;5054686;28;1649;-72
2022/12/31 06:03:19;;;;;;;;;;;;;;;21.77;26.86;99003.91;5053711;28;1588;-72
2022/12/31 06:05:44;;;;;;;;;;;;;;;21.75;27.03;99006.34;5055544;28;1421;-71
2022/12/31 06:08:10;;;;;;;;;;;;;;;21.71;27.32;99011.25;5045410;28;1645;-71
2022/12/31 06:10:37;;;;;;;;;;;;;;;21.83;26.98;99012.75;5057515;28;888;-71
2022/12/31 06:13:02;;;;;;;;;;;;;;;21.78;27.25;99022.50;5057987;28;1502;-70
2022/12/31 06:15:28;;;;;;;;;;;;;;;21.77;27.16;99026.56;5070782;28;1897;-72
2022/12/31 06:17:53;;;;;;;;;;;;;;;21.91;26.74;99030.44;5042576;28;1546;-71
2022/12/31 06:20:18;;;;;;;;;;;;;;;21.81;27.01;99033.00;5046076;28;1984;-80
2022/12/31 06:22:44;;;;;;;;;;;;;;;21.35;27.72;99032.66;5044764;28;1668;-80
2022/12/31 06:25:09;;;;;;;;;;;;;;;21.10;28.31;99033.66;5040506;28;1101;-80
2022/12/31 06:27:35;;;;;;;;;;;;;;;21.09;28.07;99043.38;5030385;28;1391;-80
2022/12/31 06:30:00;;;;;;;;;;;;;;;20.78;28.50;99050.88;5039996;28;886;-80
2022/12/31 06:32:26;;;;;;;;;;;;;;;20.90;28.56;99052.41;5040266;28;1259;-80
2022/12/31 06:34:51;;;;;;;;;;;;;;;20.75;28.50;99057.34;5040005;28;1903;-79
2022/12/31 06:37:17;;;;;;;;;;;;;;;21.00;28.50;99062.84;5040116;28;1019;-80
2022/12/31 06:39:42;;;;;;;;;;;;;;;21.39;27.59;99061.72;5039735;28;1030;-80
2022/12/31 06:42:07;;;;;;;;;;;;;;;21.43;27.50;99057.66;5040692;28;991;-80
2022/12/31 06:44:33;;;;;;;;;;;;;;;20.91;28.28;99063.28;5039867;28;873;-80
2022/12/31 06:46:58;;;;;;;;;;;;;;;20.93;28.39;99062.88;5040400;28;1160;-80
2022/12/31 06:49:24;;;;;;;;;;;;;;;20.73;28.89;99060.59;5040029;28;958;-80
2022/12/31 06:51:49;;;;;;;;;;;;;;;21.31;27.79;99067.47;5039950;28;979;-80
2022/12/31 06:54:15;;;;;;;;;;;;;;;21.33;27.65;99070.69;5040029;28;1981;-79
2022/12/31 06:56:40;;;;;;;;;;;;;;;21.19;27.86;99067.97;5039407;28;1122;-80
2022/12/31 06:59:08;;;;;;;;;;;;;;;21.13;28.00;99071.63;5055060;28;909;-80
2022/12/31 07:01:52;;;;;;;;;;;;;;;20.79;28.62;99081.56;5055478;28;1190;-80
2022/12/31 07:04:36;;;;;;;;;;;;;;;21.10;28.22;99083.78;5039526;28;945;-80
2022/12/31 07:07:08;;;;;;;;;;;;;;;21.29;27.94;99077.56;5040017;28;1180;-80
2022/12/31 07:09:37;;;;;;;;;;;;;;;21.36;27.77;99079.56;5038427;28;935;-80
2022/12/31 07:12:10;;;;;;;;;;;;;;;21.25;27.86;99077.59;5055065;28;1135;-80
2022/12/31 07:14:37;;;;;;;;;;;;;;;20.85;28.58;99090.41;5037617;28;1906;-80
2022/12/31 07:17:06;;;;;;;;;;;;;;;20.95;28.38;99094.41;5055123;28;1047;-80
2022/12/31 07:19:38;;;;;;;;;;;;;;;21.22;28.30;99086.13;5039342;28;970;-80
2022/12/31 07:22:04;;;;;;;;;;;;;;;21.36;27.86;99090.91;5055199;28;1280;-79
2022/12/31 07:24:29;;;;;;;;;;;;;;;21.21;28.26;99095.84;5054182;28;956;-80
2022/12/31 07:27:07;;;;;;;;;;;;;;;21.25;28.13;99105.91;5039275;28;964;-80
2022/12/31 07:29:51;;;;;;;;;;;;;;;20.95;28.51;99111.38;5037556;28;1024;-80
2022/12/31 07:32:22;;;;;;;;;;;;;;;20.78;28.77;99113.91;5039676;28;1157;-80
2022/12/31 07:35:15;;;;;;;;;;;;;;;21.10;28.59;99118.56;5054228;28;1887;-79
2022/12/31 07:37:43;;;;;;;;;;;;;;;21.42;27.82;99123.19;4996727;28;1024;-81
2022/12/31 07:40:12;;;;;;;;;;;;;;;21.15;28.21;99126.59;4964640;28;1003;-80
2022/12/31 07:42:39;;;;;;;;;;;;;;;21.00;28.66;99136.41;4997676;28;990;-80
2022/12/31 07:45:14;;;;;;;;;;;;;;;21.01;28.47;99126.69;4980901;28;1047;-80
2022/12/31 07:47:39;;;;;;;;;;;;;;;21.20;28.29;99145.97;4997492;28;1097;-80
2022/12/31 07:50:05;;;;;;;;;;;;;;;21.33;28.10;99144.28;4980379;28;1075;-79
2022/12/31 07:52:31;;;;;;;;;;;;;;;21.41;27.94;99150.72;4932756;28;1414;-80
2022/12/31 07:54:56;;;;;;;;;;;;;;;21.18;28.05;99147.59;4996727;28;1906;-80
2022/12/31 07:57:22;;;;;;;;;;;;;;;20.91;28.76;99145.34;4996853;28;1026;-80
2022/12/31 08:00:00;;;;;;;;;;;;;;;20.90;28.43;99148.59;4980178;28;1251;-80
2022/12/31 08:02:43;;;;;;;;;;;;;;;20.71;28.83;99147.88;4997080;28;1141;-80
2022/12/31 08:05:20;;;;;;;;;;;;;;;21.02;28.76;99153.75;4996757;28;1027;-80
2022/12/31 08:07:47;;;;;;;;;;;;;;;21.31;28.17;99157.25;4996880;28;1083;-80
2022/12/31 08:10:15;;;;;;;;;;;;;;;21.38;28.03;99151.53;4980467;28;1032;-80
2022/12/31 08:12:41;;;;;;;;;;;;;;;21.19;28.59;99161.34;4996580;28;928;-80
2022/12/31 08:15:13;;;;;;;;;;;;;;;20.96;28.64;99155.41;5022925;28;1993;-80
2022/12/31 08:17:38;;;;;;;;;;;;;;;20.84;28.76;99167.22;5038241;28;933;-80
2022/12/31 08:20:04;;;;;;;;;;;;;;;21.00;28.81;99164.69;5038535;28;904;-80
2022/12/31 08:22:42;;;;;;;;;;;;;;;21.21;28.28;99164.56;5038393;28;1020;-80
2022/12/31 08:25:16;;;;;;;;;;;;;;;21.32;28.19;99168.16;5038191;28;991;-80
2022/12/31 08:27:47;;;;;;;;;;;;;;;21.22;28.54;99171.84;5053683;28;1022;-80
2022/12/31 08:30:16;;;;;;;;;;;;;;;21.02;28.80;99163.06;5038053;28;993;-80
2022/12/31 08:32:51;;;;;;;;;;;;;;;20.95;28.82;99171.59;5038042;28;1050;-80
2022/12/31 08:35:35;;;;;;;;;;;;;;;21.38;28.31;99159.22;5053220;28;1973;-81
2022/12/31 08:38:00;;;;;;;;;;;;;;;21.33;28.35;99161.28;5038304;28;897;-79
2022/12/31 08:40:45;;;;;;;;;;;;;;;20.98;28.73;99167.13;5037927;28;1061;-81
2022/12/31 08:43:10;;;;;;;;;;;;;;;20.89;28.91;99161.13;5038259;28;975;-80
2022/12/31 08:45:48;;;;;;;;;;;;;;;21.03;28.64;99152.53;5037709;28;908;-81
2022/12/31 08:48:36;;;;;;;;;;;;;;;21.30;28.30;99162.13;5035436;28;1012;-80
2022/12/31 08:51:02;;;;;;;;;;;;;;;21.38;28.31;99153.56;5054421;28;923;-80
2022/12/31 08:53:27;;;;;;;;;;;;;;;21.16;28.30;99150.84;5037450;28;940;-81
2022/12/31 08:56:13;;;;;;;;;;;;;;;21.13;28.69;99148.84;5036558;28;1989;-80
2022/12/31 08:58:51;;;;;;;;;;;;;;;20.99;28.67;99138.44;5036780;28;1163;-80
2022/12/31 09:01:17;;;;;;;;;;;;;;;20.99;28.84;99140.47;5053354;28;930;-81
2022/12/31 09:03:46;;;;;;;;;;;;;;;21.42;28.12;99143.03;5052364;28;965;-81
2022/12/31 09:06:11;;;;;;;;;;;;;;;21.40;28.40;99131.28;5053478;28;912;-81
2022/12/31 09:08:49;;;;;;;;;;;;;;;21.04;28.72;99140.03;5037370;28;920;-81
2022/12/31 09:11:18;;;;;;;;;;;;;;;20.88;29.19;99136.88;5053690;28;1027;-81
2022/12/31 09:13:50;;;;;;;;;;;;;;;20.99;29.03;99134.81;5052798;28;1025;-81
2022/12/31 09:16:28;;;;;;;;;;;;;;;20.95;28.88;99128.34;5038208;28;1985;-80
2022/12/31 09:18:53;;;;;;;;;;;;;;;21.39;28.27;99126.84;5037466;28;892;-80
2022/12/31 09:21:19;;;;;;;;;;;;;;;21.43;28.18;99130.47;5037917;28;915;-80
2022/12/31 09:23:44;;;;;;;;;;;;;;;21.32;28.21;99125.69;5036979;28;901;-80
2022/12/31 09:26:14;;;;;;;;;;;;;;;21.18;28.56;99128.59;5052367;28;918;-81
2022/12/31 09:28:46;;;;;;;;;;;;;;;20.94;29.05;99127.56;5052027;28;809;-81
2022/12/31 09:31:16;;;;;;;;;;;;;;;20.96;28.84;99124.31;5037859;28;766;-81
2022/12/31 09:33:41;;;;;;;;;;;;;;;21.41;28.41;99130.09;5052156;28;1008;-81
2022/12/31 09:36:07;;;;;;;;;;;;;;;21.35;28.47;99117.56;5038166;28;1973;-81
2022/12/31 09:38:33;;;;;;;;;;;;;;;21.06;28.81;99123.44;5052013;28;957;-81
2022/12/31 09:41:15;;;;;;;;;;;;;;;20.80;29.28;99122.78;5038515;28;778;-81
2022/12/31 09:43:40;;;;;;;;;;;;;;;20.69;29.36;99116.38;5037112;28;825;-81
2022/12/31 09:46:24;;;;;;;;;;;;;;;20.86;29.23;99113.84;5037804;28;747;-78
2022/12/31 09:48:56;;;;;;;;;;;;;;;21.26;28.55;99110.34;5036537;28;731;-81
2022/12/31 09:51:24;;;;;;;;;;;;;;;21.31;28.56;99112.75;5037606;28;766;-80
2022/12/31 09:53:59;;;;;;;;;;;;;;;21.10;28.70;99106.44;5051988;28;905;-81
2022/12/31 09:56:50;;;;;;;;;;;;;;;20.81;29.08;99104.56;5036025;28;1914;-81
2022/12/31 09:59:25;;;;;;;;;;;;;;;20.83;29.16;99098.53;4994660;28;978;-81
2022/12/31 10:01:58;;;;;;;;;;;;;;;21.20;28.53;99095.03;4998388;28;693;-81
2022/12/31 10:04:23;;;;;;;;;;;;;;;21.28;28.57;99085.25;4982827;28;922;-81
2022/12/31 10:07:05;;;;;;;;;;;;;;;21.03;28.54;99087.47;4999273;28;937;-81
2022/12/31 10:09:33;;;;;;;;;;;;;;;20.98;28.76;99087.91;4982353;28;998;-81
2022/12/31 10:11:59;;;;;;;;;;;;;;;20.92;28.77;99089.56;4998831;28;759;-81
2022/12/31 10:14:36;;;;;;;;;;;;;;;21.15;28.37;99075.66;4998731;28;1898;-81
2022/12/31 10:17:17;;;;;;;;;;;;;;;21.22;28.26;99081.25;4998438;28;1595;-81
2022/12/31 10:19:42;;;;;;;;;;;;;;;21.16;28.46;99071.59;4998484;28;700;-80
2022/12/31 10:22:14;;;;;;;;;;;;;;;21.05;28.78;99076.53;4999185;28;915;-81
2022/12/31 10:24:58;;;;;;;;;;;;;;;20.77;29.24;99078.34;4998403;28;775;-80
2022/12/31 10:27:32;;;;;;;;;;;;;;;20.81;28.92;99076.28;4999092;28;1104;-80
2022/12/31 10:30:02;;;;;;;;;;;;;;;21.21;28.60;99071.16;4998158;28;914;-81
2022/12/31 10:32:36;;;;;;;;;;;;;;;21.41;28.16;99070.63;4999200;28;1214;-81
2022/12/31 10:35:14;;;;;;;;;;;;;;;20.97;28.61;99069.31;5001271;28;1906;-81
2022/12/31 10:37:45;;;;;;;;;;;;;;;20.77;28.91;99074.69;5040388;28;774;-80
2022/12/31 10:40:14;;;;;;;;;;;;;;;20.77;28.85;99067.00;5039706;28;861;-81
2022/12/31 10:42:39;;;;;;;;;;;;;;;21.31;28.28;99067.47;5039173;28;832;-81
2022/12/31 10:45:05;;;;;;;;;;;;;;;21.42;28.07;99058.88;5039884;28;751;-81
2022/12/31 10:47:45;;;;;;;;;;;;;;;21.51;27.79;99058.41;5040593;28;802;-81
2022/12/31 10:50:11;;;;;;;;;;;;;;;20.91;28.83;99059.66;5039485;28;770;-81
2022/12/31 10:52:46;;;;;;;;;;;;;;;20.85;28.89;99067.00;5040221;28;750;-81
2022/12/31 10:55:18;;;;;;;;;;;;;;;21.06;28.65;99047.03;5039642;28;1902;-81
2022/12/31 10:57:50;;;;;;;;;;;;;;;21.29;28.21;99052.88;5040665;28;782;-81
2022/12/31 11:00:16;;;;;;;;;;;;;;;21.31;28.01;99049.69;5040163;28;797;-81
2022/12/31 11:02:42;;;;;;;;;;;;;;;21.16;28.30;99048.97;5021344;28;1533;-81
2022/12/31 11:05:26;;;;;;;;;;;;;;;20.92;28.69;99041.47;5021127;28;1382;-82
2022/12/31 11:07:55;;;;;;;;;;;;;;;20.85;28.64;99044.34;5037653;28;847;-81
2022/12/31 11:10:39;;;;;;;;;;;;;;;21.11;28.35;99035.25;5021345;28;1008;-81
2022/12/31 11:13:16;;;;;;;;;;;;;;;21.20;28.42;99035.59;5036570;28;934;-81
2022/12/31 11:15:41;;;;;;;;;;;;;;;21.28;28.01;99034.28;5038571;28;1967;-81
2022/12/31 11:18:33;;;;;;;;;;;;;;;21.03;28.40;99028.03;5037377;28;1207;-81
2022/12/31 11:21:06;;;;;;;;;;;;;;;20.82;28.74;99040.31;5018163;28;1138;-81
2022/12/31 11:23:34;;;;;;;;;;;;;;;20.61;28.97;99040.47;5000712;28;967;-81
2022/12/31 11:26:02;;;;;;;;;;;;;;;21.06;28.38;99038.53;5001699;28;943;-81
2022/12/31 11:28:27;;;;;;;;;;;;;;;21.21;28.28;99040.03;5017136;28;999;-81
2022/12/31 11:30:53;;;;;;;;;;;;;;;21.39;28.29;99039.88;5018313;28;1039;-81
2022/12/31 11:33:22;;;;;;;;;;;;;;;21.16;28.37;99037.66;5010444;28;1144;-81
2022/12/31 11:35:54;;;;;;;;;;;;;;;20.87;28.61;99030.59;4982350;28;1902;-81
2022/12/31 11:38:23;;;;;;;;;;;;;;;20.81;28.90;99038.72;4997313;28;1086;-81
2022/12/31 11:40:52;;;;;;;;;;;;;;;21.32;27.97;99034.31;4982194;28;982;-81
2022/12/31 11:43:35;;;;;;;;;;;;;;;21.35;27.98;99026.97;4997266;28;963;-81
2022/12/31 11:46:17;;;;;;;;;;;;;;;21.38;27.86;99032.63;4982523;28;1164;-81
2022/12/31 11:48:47;;;;;;;;;;;;;;;21.14;28.12;99031.59;4981265;28;985;-80
2022/12/31 11:51:18;;;;;;;;;;;;;;;20.93;28.43;99035.38;4998135;28;1254;-80
2022/12/31 11:54:13;;;;;;;;;;;;;;;20.74;28.83;99033.91;4997006;28;964;-80
2022/12/31 11:56:46;;;;;;;;;;;;;;;20.92;28.58;99032.97;4986168;28;1055;-80
2022/12/31 11:59:12;;;;;;;;;;;;;;;21.07;28.38;99035.28;5054377;28;1031;-80
2022/12/31 12:01:37;;;;;;;;;;;;;;;21.26;28.17;99039.56;5039106;28;892;-80
2022/12/31 12:04:03;;;;;;;;;;;;;;;21.36;27.94;99034.28;5038987;28;1175;-80
2022/12/31 12:06:29;;;;;;;;;;;;;;;21.13;28.41;99021.47;5054638;28;1195;-81
2022/12/31 12:08:55;;;;;;;;;;;;;;;20.93;28.49;99034.59;5039218;28;932;-80
2022/12/31 12:11:24;;;;;;;;;;;;;;;20.93;28.54;99034.59;5039914;28;916;-80
2022/12/31 12:13:50;;;;;;;;;;;;;;;21.10;28.42;99033.66;5038748;28;969;-80
2022/12/31 12:16:16;;;;;;;;;;;;;;;21.27;28.31;99037.56;5055299;28;1899;-79
2022/12/31 12:18:45;;;;;;;;;;;;;;;21.26;28.24;99025.44;5040516;28;830;-80
2022/12/31 12:21:12;;;;;;;;;;;;;;;21.06;28.30;99032.88;5055305;28;858;-79
2022/12/31 12:23:37;;;;;;;;;;;;;;;20.81;29.00;99039.53;5038105;28;1012;-80
2022/12/31 12:26:03;;;;;;;;;;;;;;;20.69;28.93;99027.91;5054790;28;930;-79
2022/12/31 12:28:29;;;;;;;;;;;;;;;21.11;28.35;99029.59;5038268;28;985;-80
2022/12/31 12:30:55;;;;;;;;;;;;;;;21.28;27.97;99027.84;5039722;28;1146;-79
2022/12/31 12:33:21;;;;;;;;;;;;;;;21.04;28.28;99024.00;5038084;28;1126;-80
2022/12/31 12:35:46;;;;;;;;;;;;;;;20.97;28.54;99029.72;5054377;28;1926;-80
2022/12/31 12:38:21;;;;;;;;;;;;;;;21.00;28.63;99034.53;5038360;28;932;-79
2022/12/31 12:40:53;;;;;;;;;;;;;;;20.94;28.70;99031.34;5039428;28;982;-80
2022/12/31 12:43:26;;;;;;;;;;;;;;;21.15;28.29;99033.22;5038108;28;1194;-80
2022/12/31 12:45:51;;;;;;;;;;;;;;;21.17;28.21;99032.78;5054066;28;919;-80
2022/12/31 12:48:22;;;;;;;;;;;;;;;21.12;28.23;99036.06;5037867;28;997;-80
2022/12/31 12:50:47;;;;;;;;;;;;;;;21.01;28.65;99036.16;5054503;28;1036;-80
2022/12/31 12:53:22;;;;;;;;;;;;;;;20.87;28.59;99047.56;5053524;28;932;-79
2022/12/31 12:56:03;;;;;;;;;;;;;;;21.02;28.60;99037.75;5038893;28;1902;-80
2022/12/31 12:58:49;;;;;;;;;;;;;;;21.17;28.29;99033.59;5037539;28;975;-80
2022/12/31 13:01:21;;;;;;;;;;;;;;;21.07;28.44;99035.28;5054268;28;959;-80
2022/12/31 13:04:05;;;;;;;;;;;;;;;20.89;28.94;99023.31;5037475;28;917;-80
2022/12/31 13:06:43;;;;;;;;;;;;;;;20.80;28.86;99049.22;5038315;28;899;-79
2022/12/31 13:09:11;;;;;;;;;;;;;;;21.06;28.45;99038.53;5037854;28;1099;-80
2022/12/31 13:11:39;;;;;;;;;;;;;;;21.16;28.26;99043.31;5038821;28;1026;-80
2022/12/31 13:14:05;;;;;;;;;;;;;;;21.37;28.12;99044.38;5038552;28;1000;-80
2022/12/31 13:16:59;;;;;;;;;;;;;;;21.15;28.15;99041.69;5038176;28;1967;-80
2022/12/31 13:19:28;;;;;;;;;;;;;;;20.86;28.74;99049.59;5015112;28;1032;-79
2022/12/31 13:21:57;;;;;;;;;;;;;;;20.86;28.87;99057.28;5016269;28;1022;-80
2022/12/31 13:24:43;;;;;;;;;;;;;;;20.78;29.11;99063.00;4999164;28;1070;-80
2022/12/31 13:27:19;;;;;;;;;;;;;;;21.06;28.75;99061.16;4999695;28;1102;-80
2022/12/31 13:29:44;;;;;;;;;;;;;;;21.15;28.64;99058.69;5014908;28;958;-80